Middle Brook, Missouri
Current Conditions -  °F | °C
As of 6:55 PM on Saturday 22 Nov 2014 (Local Time) from KFAM Reporting Station
Broken Clouds Broken Clouds  
Wind Chill: 52°   Ceiling: 3400
Heat Index: 52°   Visibility: 10mi
Dew Point: 48°   Wind: 16mph
Humidity: 88%   Direction: 140°SE
Pressure: 29.99"   Gusts: NA
Location:  37.66°N, 90.65°W
Report Text: KFAM 230055Z AUTO 14014KT 10SM FEW029 BKN034 BKN100 11/09 A2999 RMK AO1 P0001
Loading
Personal Weather Stations






























Interactive Weather Map New forecast layout! Learn more

10-Day Weather Forecast

Advertisements
Track Severe Weather on mobile